createdAt,value
2019-03-28T00:01:17.520Z,90.20
2019-03-28T00:03:46.905Z,90.00
2019-03-28T00:06:16.235Z,89.90
2019-03-28T00:08:45.535Z,90.00
2019-03-28T00:11:14.864Z,89.60
2019-03-28T00:13:44.168Z,90.20
2019-03-28T00:16:13.499Z,90.60
2019-03-28T00:18:42.817Z,90.30
2019-03-28T00:21:12.347Z,90.60
2019-03-28T00:23:52.252Z,90.10
2019-03-28T00:26:30.015Z,90.10
2019-03-28T00:28:52.585Z,90.60
2019-03-28T00:31:41.219Z,91.10
2019-03-28T00:34:10.635Z,91.20
2019-03-28T00:36:40.038Z,90.80
2019-03-28T00:39:09.373Z,90.40
2019-03-28T00:41:58.016Z,90.10
2019-03-28T00:44:27.339Z,90.40
2019-03-28T00:46:56.713Z,90.40
2019-03-28T00:49:26.049Z,90.50
2019-03-28T00:51:55.351Z,90.90
2019-03-28T00:54:24.677Z,90.70
2019-03-28T00:56:53.984Z,90.60
2019-03-28T00:59:23.312Z,90.70
2019-03-28T01:01:52.613Z,90.90
2019-03-28T01:04:21.994Z,91.20
2019-03-28T01:06:51.359Z,90.90
2019-03-28T01:09:20.697Z,91.10
2019-03-28T01:11:50.100Z,91.20
2019-03-28T01:14:19.404Z,91.30
2019-03-28T01:16:48.754Z,91.30
2019-03-28T01:19:18.061Z,90.90
2019-03-28T01:21:47.382Z,90.90
2019-03-28T01:24:16.711Z,91.20
2019-03-28T01:26:56.535Z,91.20
2019-03-28T01:29:17.031Z,91.20
2019-03-28T01:32:05.760Z,91.20
2019-03-28T01:34:36.129Z,91.20
2019-03-28T01:37:05.458Z,91.70
2019-03-28T01:39:35.289Z,91.60
2019-03-28T01:42:04.978Z,91.90
2019-03-28T01:44:34.284Z,91.80
2019-03-28T01:47:03.633Z,91.70
2019-03-28T01:49:32.939Z,92.00
2019-03-28T01:52:04.273Z,92.00
2019-03-28T01:54:33.276Z,92.50
2019-03-28T01:57:10.978Z,92.30
2019-03-28T01:59:33.701Z,91.90
2019-03-28T02:02:02.997Z,91.60
2019-03-28T02:04:33.436Z,91.60
2019-03-28T02:07:02.741Z,91.60
2019-03-28T02:09:32.391Z,91.70
2019-03-28T02:12:01.921Z,91.80
2019-03-28T02:14:31.234Z,92.00
2019-03-28T02:17:00.534Z,92.00
2019-03-28T02:19:29.877Z,91.70
2019-03-28T02:21:59.178Z,91.70
2019-03-28T02:24:28.514Z,91.60
2019-03-28T02:26:57.837Z,91.60
2019-03-28T02:29:27.144Z,91.50
2019-03-28T02:31:56.569Z,91.80
2019-03-28T02:34:25.876Z,91.60
2019-03-28T02:36:55.249Z,91.50
2019-03-28T02:39:24.790Z,91.30
2019-03-28T02:41:54.290Z,91.80
2019-03-28T02:44:24.669Z,91.80
2019-03-28T02:46:53.996Z,92.00
2019-03-28T02:49:23.464Z,92.00
2019-03-28T02:51:52.797Z,92.10
2019-03-28T02:54:22.138Z,92.30
2019-03-28T02:56:51.471Z,92.40
2019-03-28T02:59:20.777Z,91.90
2019-03-28T03:01:50.107Z,92.20
2019-03-28T03:04:19.409Z,92.50
2019-03-28T03:06:48.725Z,92.50
2019-03-28T03:09:18.095Z,92.90
2019-03-28T03:11:47.416Z,92.60
2019-03-28T03:14:16.782Z,92.70
2019-03-28T03:16:46.127Z,92.90
2019-03-28T03:19:15.530Z,93.10
2019-03-28T03:21:44.828Z,93.00
2019-03-28T03:24:14.144Z,92.50
2019-03-28T03:26:43.479Z,92.20
2019-03-28T03:29:12.834Z,92.30
2019-03-28T03:31:42.164Z,92.10
2019-03-28T03:34:11.472Z,92.10
2019-03-28T03:36:40.796Z,92.30
2019-03-28T03:39:10.180Z,92.50
2019-03-28T03:41:39.508Z,92.30
2019-03-28T03:44:08.863Z,92.30
2019-03-28T03:46:38.220Z,92.70
2019-03-28T03:49:07.544Z,92.70
2019-03-28T03:51:36.909Z,92.70
2019-03-28T03:54:06.436Z,92.60
2019-03-28T03:56:35.744Z,92.40
2019-03-28T03:59:05.065Z,92.50
2019-03-28T04:01:34.394Z,92.40
2019-03-28T04:04:03.722Z,92.40
2019-03-28T04:06:33.022Z,92.20
2019-03-28T04:09:02.632Z,91.80
2019-03-28T04:11:32.972Z,92.50
2019-03-28T04:14:02.720Z,92.50
2019-03-28T04:16:32.263Z,92.20
2019-03-28T04:19:01.594Z,92.10
2019-03-28T04:21:31.001Z,92.40
2019-03-28T04:24:00.321Z,92.70
2019-03-28T04:26:29.617Z,92.40
2019-03-28T04:29:18.464Z,92.40
2019-03-28T04:31:47.773Z,92.40
2019-03-28T04:34:17.110Z,92.60
2019-03-28T04:36:46.410Z,92.70
2019-03-28T04:39:16.576Z,92.90
2019-03-28T04:41:46.148Z,93.00
2019-03-28T04:44:15.488Z,93.10
2019-03-28T04:46:45.294Z,92.80
2019-03-28T04:49:15.866Z,92.70
2019-03-28T04:51:45.354Z,92.70
2019-03-28T04:54:14.811Z,92.90
2019-03-28T04:56:44.116Z,93.00
2019-03-28T04:59:13.449Z,92.90
2019-03-28T05:01:42.756Z,92.70
2019-03-28T05:04:12.090Z,92.70
2019-03-28T05:06:41.466Z,92.70
2019-03-28T05:09:10.844Z,92.80
2019-03-28T05:11:40.163Z,92.90
2019-03-28T05:14:09.493Z,92.80
2019-03-28T05:16:38.798Z,92.70
2019-03-28T05:19:27.471Z,92.80
2019-03-28T05:21:56.792Z,92.90
2019-03-28T05:24:26.129Z,92.60
2019-03-28T05:26:55.441Z,92.70
2019-03-28T05:29:24.773Z,92.90
2019-03-28T05:31:54.099Z,92.90
2019-03-28T05:34:23.513Z,92.80
2019-03-28T05:36:52.817Z,92.90
2019-03-28T05:39:22.161Z,92.90
2019-03-28T05:41:51.469Z,93.10
2019-03-28T05:44:20.804Z,93.10
2019-03-28T05:46:50.226Z,93.00
2019-03-28T05:49:19.565Z,92.90
2019-03-28T05:51:48.866Z,93.00
2019-03-28T05:54:18.216Z,92.70
2019-03-28T05:56:47.542Z,92.70
2019-03-28T05:59:16.939Z,92.90
2019-03-28T06:01:46.271Z,92.70
2019-03-28T06:04:15.568Z,92.50
2019-03-28T06:06:44.900Z,92.10
2019-03-28T06:09:14.216Z,91.90
2019-03-28T06:11:43.656Z,91.80
2019-03-28T06:14:12.944Z,91.70
2019-03-28T06:16:42.278Z,91.70
2019-03-28T06:19:12.361Z,91.80
2019-03-28T06:21:41.805Z,91.90
2019-03-28T06:24:11.673Z,91.80
2019-03-28T06:26:41.409Z,91.80
2019-03-28T06:29:22.854Z,91.90
2019-03-28T06:31:54.285Z,92.20
2019-03-28T06:34:12.960Z,92.30
2019-03-28T06:36:42.340Z,92.10
2019-03-28T06:39:11.674Z,92.00
2019-03-28T06:41:40.986Z,91.90
2019-03-28T06:44:10.303Z,91.80
2019-03-28T06:46:39.633Z,92.00
2019-03-28T06:49:28.273Z,92.00
2019-03-28T06:51:57.609Z,91.50
2019-03-28T06:54:26.948Z,91.80
2019-03-28T06:56:56.270Z,91.50
2019-03-28T06:59:36.825Z,91.50
2019-03-28T07:01:57.666Z,91.70
2019-03-28T07:04:27.010Z,91.30
2019-03-28T07:06:56.331Z,91.20
2019-03-28T07:09:25.639Z,91.20
2019-03-28T07:11:54.989Z,91.10
2019-03-28T07:14:24.299Z,91.10
2019-03-28T07:16:53.636Z,91.20
2019-03-28T07:19:22.971Z,91.50
2019-03-28T07:21:52.283Z,90.90
2019-03-28T07:24:21.633Z,90.60
2019-03-28T07:26:51.466Z,90.40
2019-03-28T07:29:21.158Z,90.20
2019-03-28T07:31:50.464Z,90.00
2019-03-28T07:34:19.763Z,90.00
2019-03-28T07:36:49.103Z,89.20
2019-03-28T07:39:19.276Z,87.30
2019-03-28T07:41:48.760Z,86.00
2019-03-28T07:44:18.075Z,85.60
2019-03-28T07:46:47.769Z,84.50
2019-03-28T07:49:17.273Z,84.40
2019-03-28T07:51:46.889Z,83.90
2019-03-28T07:54:16.223Z,83.80
2019-03-28T07:56:45.715Z,83.40
2019-03-28T07:59:15.026Z,82.40
2019-03-28T08:01:44.335Z,81.80
2019-03-28T08:04:13.676Z,81.70
2019-03-28T08:06:49.757Z,81.00
2019-03-28T08:09:17.361Z,79.70
2019-03-28T08:11:48.063Z,78.90
2019-03-28T08:14:16.083Z,78.60
2019-03-28T08:16:45.381Z,77.10
2019-03-28T08:19:26.916Z,77.10
2019-03-28T08:21:56.366Z,76.20
2019-03-28T08:24:25.665Z,76.50
2019-03-28T08:26:54.996Z,76.50
2019-03-28T08:29:24.297Z,74.50
2019-03-28T08:31:54.882Z,73.70
2019-03-28T08:34:24.429Z,72.10
2019-03-28T08:36:53.888Z,71.80
2019-03-28T08:39:23.532Z,71.00
2019-03-28T08:41:52.853Z,69.50
2019-03-28T08:44:34.175Z,68.30
2019-03-28T08:47:06.078Z,66.90
2019-03-28T08:49:34.492Z,68.00
2019-03-28T08:52:03.894Z,67.40
2019-03-28T08:54:33.208Z,67.50
2019-03-28T08:57:02.646Z,66.30
2019-03-28T08:59:31.977Z,66.50
2019-03-28T09:02:01.269Z,65.90
2019-03-28T09:04:30.615Z,64.40
2019-03-28T09:06:59.918Z,62.30
2019-03-28T09:09:29.223Z,61.40
2019-03-28T09:11:59.618Z,62.10
2019-03-28T09:14:31.801Z,61.80
2019-03-28T09:16:59.983Z,59.70
2019-03-28T09:19:29.286Z,58.30
2019-03-28T09:21:58.608Z,59.00
2019-03-28T09:24:27.912Z,58.40
2019-03-28T09:26:57.235Z,56.40
2019-03-28T09:29:26.536Z,56.00
2019-03-28T09:32:07.990Z,54.80
2019-03-28T09:34:37.327Z,53.10
2019-03-28T09:37:06.659Z,54.60
2019-03-28T09:39:35.998Z,53.50
2019-03-28T09:42:05.539Z,52.50
2019-03-28T09:44:34.927Z,52.20
2019-03-28T09:47:04.388Z,51.20
2019-03-28T09:49:33.779Z,48.60
2019-03-28T09:52:03.250Z,48.90
2019-03-28T09:54:32.882Z,49.50
2019-03-28T09:57:02.122Z,47.50
2019-03-28T09:59:31.461Z,46.40
2019-03-28T10:02:01.382Z,44.70
2019-03-28T10:04:32.309Z,42.80
2019-03-28T10:07:01.632Z,40.80
2019-03-28T10:09:30.935Z,41.20
2019-03-28T10:12:00.269Z,39.00
2019-03-28T10:14:29.571Z,37.80
2019-03-28T10:16:58.899Z,37.80
2019-03-28T10:19:28.228Z,37.50
2019-03-28T10:21:57.579Z,38.20
2019-03-28T10:24:26.909Z,39.60
2019-03-28T10:26:56.208Z,37.90
2019-03-28T10:29:25.531Z,36.20
2019-03-28T10:31:54.892Z,33.00
2019-03-28T10:34:24.233Z,33.10
2019-03-28T10:36:53.620Z,33.30
2019-03-28T10:39:22.959Z,33.80
2019-03-28T10:41:52.405Z,31.80
2019-03-28T10:44:21.737Z,30.40
2019-03-28T10:46:52.138Z,30.90
2019-03-28T10:49:21.461Z,30.60
2019-03-28T10:51:50.753Z,30.60
2019-03-28T10:54:20.992Z,29.70
2019-03-28T10:56:52.492Z,30.40
2019-03-28T10:59:23.786Z,29.60
2019-03-28T11:01:52.511Z,29.70
2019-03-28T11:04:22.557Z,29.40
2019-03-28T11:06:52.256Z,27.60
2019-03-28T11:09:21.586Z,27.70
2019-03-28T11:11:50.909Z,27.70
2019-03-28T11:14:20.259Z,27.90
2019-03-28T11:16:49.630Z,28.00
2019-03-28T11:19:38.300Z,26.90
2019-03-28T11:22:08.641Z,27.40
2019-03-28T11:24:39.045Z,27.10
2019-03-28T11:27:08.356Z,26.30
2019-03-28T11:29:37.695Z,26.90
2019-03-28T11:32:07.135Z,27.10
2019-03-28T11:34:36.588Z,27.20
2019-03-28T11:37:05.909Z,26.00
2019-03-28T11:39:35.224Z,26.70
2019-03-28T11:42:04.805Z,28.10
2019-03-28T11:44:34.136Z,28.00
2019-03-28T11:47:04.517Z,27.70
2019-03-28T11:49:33.845Z,27.70
2019-03-28T11:52:03.145Z,27.20
2019-03-28T11:54:32.486Z,27.90
2019-03-28T11:57:01.793Z,28.60
2019-03-28T11:59:31.098Z,29.80
2019-03-28T12:02:18.377Z,29.80
2019-03-28T12:04:31.462Z,30.40
2019-03-28T12:07:00.755Z,30.00
2019-03-28T12:09:30.071Z,30.30
2019-03-28T12:11:59.410Z,32.10
2019-03-28T12:14:28.707Z,32.70
2019-03-28T12:16:58.039Z,33.90
2019-03-28T12:19:27.371Z,34.60
2019-03-28T12:21:56.713Z,34.50
2019-03-28T12:24:26.014Z,36.50
2019-03-28T12:26:55.371Z,37.10
2019-03-28T12:29:24.708Z,37.60
2019-03-28T12:31:54.030Z,38.20
2019-03-28T12:34:23.324Z,36.30
2019-03-28T12:36:52.665Z,36.30
2019-03-28T12:39:21.963Z,36.80
2019-03-28T12:41:51.298Z,37.40
2019-03-28T12:44:20.632Z,36.20
2019-03-28T12:46:49.951Z,36.90
2019-03-28T12:49:19.248Z,36.50
2019-03-28T12:51:48.594Z,37.00
2019-03-28T12:54:17.898Z,36.40
2019-03-28T12:56:47.248Z,36.70
2019-03-28T12:59:16.559Z,37.60
2019-03-28T13:01:46.008Z,36.70
2019-03-28T13:04:15.356Z,37.00
2019-03-28T13:06:44.699Z,38.70
2019-03-28T13:09:14.204Z,38.60
2019-03-28T13:11:43.514Z,37.40
2019-03-28T13:14:12.871Z,36.60
2019-03-28T13:16:42.156Z,37.00
2019-03-28T13:19:11.577Z,35.70
2019-03-28T13:21:40.929Z,36.60
2019-03-28T13:24:10.265Z,34.80
2019-03-28T13:26:39.639Z,35.30
2019-03-28T13:29:08.988Z,36.60
2019-03-28T13:31:38.344Z,35.20
2019-03-28T13:34:07.653Z,35.00
2019-03-28T13:36:40.455Z,33.60
2019-03-28T13:39:09.954Z,34.50
2019-03-28T13:41:39.246Z,33.90
2019-03-28T13:44:08.589Z,33.30
2019-03-28T13:46:37.950Z,32.10
2019-03-28T13:49:07.380Z,32.60
2019-03-28T13:51:36.721Z,32.10
2019-03-28T13:54:06.099Z,31.70
2019-03-28T13:56:38.656Z,33.30
2019-03-28T13:59:08.054Z,33.10
2019-03-28T14:01:37.387Z,33.10
2019-03-28T14:04:06.800Z,32.90
2019-03-28T14:06:36.094Z,34.80
2019-03-28T14:09:07.065Z,34.20
2019-03-28T14:11:37.764Z,35.60
2019-03-28T14:14:07.125Z,35.80
2019-03-28T14:16:36.459Z,34.10
2019-03-28T14:19:05.800Z,35.00
2019-03-28T14:21:35.128Z,34.90
2019-03-28T14:24:04.534Z,37.00
2019-03-28T14:26:33.826Z,37.00
2019-03-28T14:29:03.155Z,38.40
2019-03-28T14:31:33.490Z,37.60
2019-03-28T14:34:02.721Z,37.90
2019-03-28T14:36:33.254Z,37.50
2019-03-28T14:39:02.576Z,37.80
2019-03-28T14:41:33.143Z,38.90
2019-03-28T14:44:02.613Z,39.70
2019-03-28T14:46:32.161Z,40.40
2019-03-28T14:49:01.664Z,40.40
2019-03-28T14:51:31.102Z,39.80
2019-03-28T14:54:00.420Z,39.10
2019-03-28T14:56:30.104Z,39.60
2019-03-28T14:59:00.032Z,39.70
2019-03-28T15:01:29.421Z,39.20
2019-03-28T15:03:59.926Z,39.40
2019-03-28T15:06:29.251Z,39.30
2019-03-28T15:08:58.587Z,38.80
2019-03-28T15:11:27.884Z,38.30
2019-03-28T15:13:57.211Z,38.50
2019-03-28T15:16:26.589Z,38.00
2019-03-28T15:18:56.026Z,38.70
2019-03-28T15:21:25.404Z,39.00
2019-03-28T15:23:54.731Z,38.60
2019-03-28T15:26:24.051Z,39.00
2019-03-28T15:28:53.425Z,39.80
2019-03-28T15:31:22.749Z,40.10
2019-03-28T15:33:52.048Z,40.90
2019-03-28T15:36:23.144Z,41.10
2019-03-28T15:38:52.395Z,41.20
2019-03-28T15:41:21.725Z,40.40
2019-03-28T15:43:51.044Z,40.90
2019-03-28T15:46:20.387Z,41.80
2019-03-28T15:48:49.763Z,42.30
2019-03-28T15:51:19.080Z,42.70
2019-03-28T15:53:49.603Z,43.00
2019-03-28T15:56:19.061Z,43.50
2019-03-28T15:58:48.379Z,44.30
2019-03-28T16:01:17.737Z,43.80
2019-03-28T16:03:52.811Z,44.20
2019-03-28T16:06:18.138Z,44.20
2019-03-28T16:08:47.471Z,44.20
2019-03-28T16:11:16.770Z,44.60
2019-03-28T16:13:47.073Z,44.40
2019-03-28T16:16:19.268Z,44.70
2019-03-28T16:18:49.047Z,44.80
2019-03-28T16:21:19.507Z,45.90
2019-03-28T16:23:48.196Z,44.70
2019-03-28T16:26:17.417Z,45.20
2019-03-28T16:28:46.756Z,45.40
2019-03-28T16:31:16.056Z,45.40
2019-03-28T16:33:45.363Z,45.50
2019-03-28T16:36:14.694Z,46.20
2019-03-28T16:38:43.997Z,46.00
2019-03-28T16:41:13.393Z,46.50
2019-03-28T16:43:42.733Z,46.90
2019-03-28T16:46:12.066Z,46.80
2019-03-28T16:48:41.404Z,47.20
2019-03-28T16:51:10.812Z,47.40
2019-03-28T16:53:40.184Z,47.90
2019-03-28T16:56:09.548Z,47.60
2019-03-28T16:58:38.863Z,47.90
2019-03-28T17:01:08.343Z,48.80
2019-03-28T17:03:37.727Z,49.10
2019-03-28T17:06:07.822Z,49.50
2019-03-28T17:08:37.519Z,50.10
2019-03-28T17:11:06.970Z,50.60
2019-03-28T17:13:36.306Z,51.00
2019-03-28T17:16:05.684Z,51.30
2019-03-28T17:18:35.087Z,51.00
2019-03-28T17:21:04.628Z,51.00
2019-03-28T17:23:33.970Z,50.90
2019-03-28T17:26:03.898Z,51.20
2019-03-28T17:28:33.292Z,51.70
2019-03-28T17:31:02.596Z,51.80
2019-03-28T17:33:32.229Z,51.90
2019-03-28T17:36:01.685Z,52.30
2019-03-28T17:38:31.060Z,52.20
2019-03-28T17:41:00.385Z,52.50
2019-03-28T17:43:29.723Z,52.70
2019-03-28T17:45:59.046Z,53.30
2019-03-28T17:48:30.781Z,53.40
2019-03-28T17:51:00.383Z,53.70
2019-03-28T17:53:29.753Z,54.10
2019-03-28T17:55:59.073Z,54.10
2019-03-28T17:58:28.603Z,54.30
2019-03-28T18:00:58.102Z,54.70
2019-03-28T18:03:31.433Z,55.00
2019-03-28T18:05:58.824Z,55.10
2019-03-28T18:08:28.511Z,55.40
2019-03-28T18:11:00.286Z,55.90
2019-03-28T18:13:28.750Z,56.30
2019-03-28T18:15:58.232Z,56.60
2019-03-28T18:18:27.605Z,56.60
2019-03-28T18:20:56.929Z,57.00
2019-03-28T18:23:26.226Z,57.10
2019-03-28T18:25:55.620Z,57.60
2019-03-28T18:28:24.928Z,58.00
2019-03-28T18:30:54.266Z,58.20
2019-03-28T18:33:23.696Z,58.60
2019-03-28T18:35:53.026Z,59.10
2019-03-28T18:38:22.344Z,59.50
2019-03-28T18:40:51.643Z,59.80
2019-03-28T18:43:22.121Z,60.00
2019-03-28T18:45:51.421Z,60.50
2019-03-28T18:48:29.121Z,60.60
2019-03-28T18:50:51.786Z,61.20
2019-03-28T18:53:21.109Z,61.90
2019-03-28T18:55:50.503Z,62.20
2019-03-28T18:58:19.810Z,62.40
2019-03-28T19:00:49.154Z,62.80
2019-03-28T19:03:18.548Z,63.10
2019-03-28T19:05:48.699Z,63.80
2019-03-28T19:08:18.216Z,63.80
2019-03-28T19:10:50.856Z,64.30
2019-03-28T19:13:19.565Z,64.40
2019-03-28T19:15:49.794Z,64.30
2019-03-28T19:18:19.265Z,64.70
2019-03-28T19:20:48.605Z,64.40
2019-03-28T19:23:17.928Z,63.80
2019-03-28T19:25:47.478Z,63.50
2019-03-28T19:28:28.188Z,63.50
2019-03-28T19:30:47.841Z,63.30
2019-03-28T19:33:17.145Z,63.30
2019-03-28T19:35:47.015Z,63.30
2019-03-28T19:38:17.029Z,63.50
2019-03-28T19:40:46.744Z,63.50
2019-03-28T19:43:20.767Z,64.50
2019-03-28T19:45:47.071Z,64.60
2019-03-28T19:48:16.376Z,64.30
2019-03-28T19:50:45.708Z,64.50
2019-03-28T19:53:15.072Z,64.20
2019-03-28T19:55:44.403Z,64.50
2019-03-28T19:58:14.021Z,64.10
2019-03-28T20:00:44.022Z,64.20
2019-03-28T20:03:15.137Z,64.40
2019-03-28T20:05:47.966Z,64.50
2019-03-28T20:08:17.343Z,64.80
2019-03-28T20:10:46.914Z,64.80
2019-03-28T20:13:17.264Z,65.00
2019-03-28T20:15:46.602Z,65.20
2019-03-28T20:18:15.971Z,65.00
2019-03-28T20:20:45.288Z,65.40
2019-03-28T20:23:14.689Z,65.30
2019-03-28T20:25:44.282Z,65.20
2019-03-28T20:28:14.527Z,65.20
2019-03-28T20:30:44.172Z,65.80
2019-03-28T20:33:13.603Z,65.70
2019-03-28T20:35:42.933Z,65.60
2019-03-28T20:38:12.314Z,65.80
2019-03-28T20:40:43.320Z,65.60
2019-03-28T20:43:12.818Z,65.80
2019-03-28T20:45:42.373Z,66.10
2019-03-28T20:48:11.795Z,66.10
2019-03-28T20:50:41.150Z,65.90
2019-03-28T20:53:11.189Z,66.30
2019-03-28T20:55:40.492Z,66.70
2019-03-28T20:58:09.745Z,66.70
2019-03-28T21:00:41.683Z,66.90
2019-03-28T21:03:12.515Z,67.20
2019-03-28T21:05:42.103Z,68.60
2019-03-28T21:08:11.807Z,68.00
2019-03-28T21:10:41.138Z,68.00
2019-03-28T21:13:10.426Z,68.20
2019-03-28T21:15:39.925Z,68.20
2019-03-28T21:18:09.229Z,68.40
2019-03-28T21:20:38.564Z,68.80
2019-03-28T21:23:07.911Z,68.40
2019-03-28T21:25:37.301Z,68.50
2019-03-28T21:28:06.599Z,68.60
2019-03-28T21:30:46.555Z,69.10
2019-03-28T21:33:07.124Z,69.40
2019-03-28T21:35:36.419Z,69.20
2019-03-28T21:38:05.748Z,68.90
2019-03-28T21:40:35.125Z,68.90
2019-03-28T21:43:04.877Z,69.50
2019-03-28T21:45:34.510Z,69.30
2019-03-28T21:48:03.979Z,69.10
2019-03-28T21:50:33.348Z,69.30
2019-03-28T21:53:02.676Z,69.30
2019-03-28T21:55:32.016Z,69.40
2019-03-28T21:58:01.312Z,69.50
2019-03-28T22:00:30.637Z,69.80
2019-03-28T22:02:59.959Z,70.40
2019-03-28T22:05:30.783Z,71.00
2019-03-28T22:08:00.387Z,71.40
2019-03-28T22:10:29.797Z,71.40
2019-03-28T22:12:59.113Z,71.10
2019-03-28T22:15:29.504Z,71.50
2019-03-28T22:17:58.806Z,71.80
2019-03-28T22:20:29.200Z,72.40
2019-03-28T22:22:58.576Z,72.80
2019-03-28T22:25:27.897Z,73.10
2019-03-28T22:27:57.276Z,72.90
2019-03-28T22:30:26.665Z,73.50
2019-03-28T22:32:55.972Z,74.30
2019-03-28T22:35:37.994Z,73.80
2019-03-28T22:38:07.286Z,73.50
2019-03-28T22:40:36.610Z,74.10
2019-03-28T22:43:07.022Z,74.50
2019-03-28T22:45:35.928Z,75.10
2019-03-28T22:48:10.951Z,75.20
2019-03-28T22:50:36.302Z,75.70
2019-03-28T22:53:05.592Z,75.90
2019-03-28T22:55:34.993Z,76.00
2019-03-28T22:58:04.925Z,76.10
2019-03-28T23:00:47.676Z,76.50
2019-03-28T23:03:18.672Z,76.60
2019-03-28T23:05:50.598Z,77.40
2019-03-28T23:08:19.932Z,77.50
2019-03-28T23:10:49.310Z,78.00
2019-03-28T23:13:18.691Z,78.10
2019-03-28T23:15:49.709Z,78.10
2019-03-28T23:18:31.595Z,78.70
2019-03-28T23:21:00.912Z,78.70
2019-03-28T23:23:30.225Z,79.80
2019-03-28T23:25:59.660Z,80.00
2019-03-28T23:28:29.022Z,80.40
2019-03-28T23:30:58.443Z,80.20
2019-03-28T23:33:27.789Z,80.80
2019-03-28T23:35:57.155Z,80.80
2019-03-28T23:38:26.484Z,81.40
2019-03-28T23:40:56.018Z,81.50
2019-03-28T23:43:25.480Z,81.30
2019-03-28T23:45:54.909Z,80.70
2019-03-28T23:48:24.244Z,81.00
2019-03-28T23:50:53.548Z,81.50
2019-03-28T23:53:22.872Z,81.30
2019-03-28T23:55:52.187Z,82.20
2019-03-28T23:58:21.481Z,82.50
